Time;durP1;ratioP1;P1;durP2;ratioP2;P2;SDS_P1;SDS_P2;PMS_P1;PMS_P2;Temp;Humidity;BMP_temperature;BMP_pressure;BME280_temperature;BME280_humidity;BME280_pressure;Samples;Min_cycle;Max_cycle;Signal;HPM_P1;HPM_P2
2022/04/12 00:01:57;;;;;;;5.13;3.97;;;6.50;93.10;;;;;;5058420;28;20173;-87
2022/04/12 00:04:23;;;;;;;5.03;3.70;;;6.50;93.20;;;;;;5058754;28;20191;-87
2022/04/12 00:06:48;;;;;;;3.90;3.60;;;6.50;93.10;;;;;;5059275;28;20257;-87
2022/04/12 00:09:14;;;;;;;4.47;3.90;;;6.50;93.10;;;;;;5059595;28;20698;-87
2022/04/12 00:11:42;;;;;;;3.87;3.57;;;6.50;93.00;;;;;;5060179;28;20651;-87
2022/04/12 00:14:07;;;;;;;4.23;3.60;;;6.50;93.20;;;;;;5058471;28;20225;-86
2022/04/12 00:16:35;;;;;;;4.40;4.00;;;6.50;93.20;;;;;;5060365;28;20222;-86
2022/04/12 00:19:04;;;;;;;4.20;3.80;;;6.50;93.20;;;;;;5059988;28;20169;-86
2022/04/12 00:21:34;;;;;;;3.83;3.53;;;6.50;93.20;;;;;;5062380;28;20232;-87
2022/04/12 00:24:07;;;;;;;6.57;4.00;;;6.50;93.20;;;;;;5070640;28;20167;-86
2022/04/12 00:26:35;;;;;;;3.90;3.60;;;6.50;93.20;;;;;;5067706;28;20243;-86
2022/04/12 00:29:03;;;;;;;3.97;3.67;;;6.50;93.20;;;;;;5077982;28;20227;-87
2022/04/12 00:31:30;;;;;;;5.60;4.20;;;6.50;93.20;;;;;;5081755;28;20180;-86
2022/04/12 00:33:56;;;;;;;5.87;3.83;;;6.50;93.10;;;;;;5058492;28;20183;-86
2022/04/12 00:36:24;;;;;;;4.97;3.80;;;6.50;93.20;;;;;;5078070;28;20208;-90
2022/04/12 00:38:51;;;;;;;4.93;3.60;;;6.50;93.20;;;;;;5070615;28;20203;-90
2022/04/12 00:41:17;;;;;;;3.37;3.07;;;6.50;93.10;;;;;;5059813;28;20689;-87
2022/04/12 00:43:44;;;;;;;7.37;4.17;;;6.60;93.20;;;;;;5071994;28;20180;-87
2022/04/12 00:46:10;;;;;;;4.27;3.87;;;6.50;93.10;;;;;;5056501;28;20659;-86
2022/04/12 00:48:37;;;;;;;4.87;3.63;;;6.50;93.20;;;;;;5056641;28;20553;-86
2022/04/12 00:51:06;;;;;;;4.20;3.73;;;6.50;93.40;;;;;;5071339;28;20176;-87
2022/04/12 00:53:35;;;;;;;5.73;4.17;;;6.30;93.50;;;;;;5055892;28;20651;-86
2022/04/12 00:56:02;;;;;;;6.27;3.90;;;6.30;93.60;;;;;;5072484;28;20200;-87
2022/04/12 00:58:29;;;;;;;4.70;3.57;;;6.30;93.50;;;;;;5056913;28;20179;-88
2022/04/12 01:00:54;;;;;;;6.33;4.10;;;6.40;93.60;;;;;;5056801;28;20202;-87
2022/04/12 01:03:23;;;;;;;4.87;3.83;;;6.40;93.50;;;;;;5070398;28;20210;-86
2022/04/12 01:05:50;;;;;;;3.97;3.67;;;6.30;93.70;;;;;;5056040;28;20653;-86
2022/04/12 01:08:18;;;;;;;4.17;3.83;;;6.30;93.70;;;;;;5072071;28;20279;-86
2022/04/12 01:10:45;;;;;;;4.47;3.83;;;6.30;93.60;;;;;;5071438;28;20572;-87
2022/04/12 01:13:13;;;;;;;4.20;3.80;;;6.40;93.50;;;;;;5056138;28;20249;-87
2022/04/12 01:15:42;;;;;;;4.20;3.90;;;6.40;93.60;;;;;;5055356;28;20183;-87
2022/04/12 01:18:16;;;;;;;4.73;4.07;;;6.30;93.60;;;;;;5046073;28;20167;-86
2022/04/12 01:20:42;;;;;;;7.13;3.57;;;6.30;93.70;;;;;;5070572;28;20184;-86
2022/04/12 01:23:40;;;;;;;4.43;3.90;;;6.30;93.80;;;;;;5068243;28;20214;-86
2022/04/12 01:26:13;;;;;;;4.23;3.83;;;6.30;93.80;;;;;;5065418;28;20171;-86
2022/04/12 01:28:45;;;;;;;3.90;3.60;;;6.30;93.90;;;;;;5070469;28;20564;-87
2022/04/12 01:31:11;;;;;;;4.00;3.60;;;6.30;94.00;;;;;;5074497;28;20210;-86
2022/04/12 01:33:38;;;;;;;4.27;3.63;;;6.30;93.90;;;;;;5065878;28;20183;-86
2022/04/12 01:36:06;;;;;;;7.17;4.23;;;6.30;93.80;;;;;;5065143;28;20227;-86
2022/04/12 01:38:31;;;;;;;3.97;3.50;;;6.30;93.80;;;;;;5065084;28;20189;-88
2022/04/12 01:40:58;;;;;;;3.80;3.40;;;6.20;93.90;;;;;;5065719;28;20234;-87
2022/04/12 01:43:25;;;;;;;4.73;3.63;;;6.30;93.80;;;;;;5065069;28;20243;-87
2022/04/12 01:45:57;;;;;;;4.30;3.90;;;6.30;93.80;;;;;;5066106;28;20179;-87
2022/04/12 01:48:25;;;;;;;4.00;3.70;;;6.40;93.90;;;;;;5065562;28;20253;-87
2022/04/12 01:50:51;;;;;;;3.70;3.40;;;6.30;94.00;;;;;;5064431;28;20190;-87
2022/04/12 01:53:18;;;;;;;6.73;3.70;;;6.30;94.10;;;;;;5067195;28;20172;-88
2022/04/12 01:55:47;;;;;;;3.73;3.43;;;6.30;94.20;;;;;;5066665;28;20613;-87
2022/04/12 01:58:13;;;;;;;3.83;3.53;;;6.30;94.20;;;;;;5067520;28;20278;-87
2022/04/12 02:00:42;;;;;;;5.23;3.70;;;6.30;94.20;;;;;;5066875;28;20653;-89
2022/04/12 02:03:10;;;;;;;8.10;4.00;;;6.40;94.20;;;;;;5074051;28;20152;-86
2022/04/12 02:05:35;;;;;;;4.10;3.80;;;6.30;94.20;;;;;;5072835;28;20217;-86
2022/04/12 02:08:02;;;;;;;4.23;3.83;;;6.30;94.30;;;;;;5076318;28;20172;-88
2022/04/12 02:10:29;;;;;;;5.67;3.97;;;6.20;94.40;;;;;;5090460;28;20239;-86
2022/04/12 02:12:55;;;;;;;5.43;4.20;;;6.20;94.30;;;;;;5074959;28;20193;-90
2022/04/12 02:15:22;;;;;;;5.37;4.03;;;6.10;94.40;;;;;;5078226;28;20172;-89
2022/04/12 02:17:49;;;;;;;5.97;4.27;;;6.20;94.50;;;;;;5077617;28;20239;-91
2022/04/12 02:20:15;;;;;;;5.17;4.47;;;6.20;94.50;;;;;;5078209;28;20176;-91
2022/04/12 02:22:42;;;;;;;4.83;4.30;;;6.20;94.50;;;;;;5093568;28;20199;-95
2022/04/12 02:25:08;;;;;;;4.50;4.10;;;6.10;94.60;;;;;;5064694;28;20186;-86
2022/04/12 02:27:34;;;;;;;4.73;4.13;;;6.00;94.70;;;;;;5065564;28;20177;-87
2022/04/12 02:30:01;;;;;;;4.97;4.53;;;6.00;94.60;;;;;;5077819;28;20179;-87
2022/04/12 02:32:28;;;;;;;5.30;4.80;;;6.00;94.70;;;;;;5074301;28;20195;-88
2022/04/12 02:34:57;;;;;;;6.00;4.23;;;6.00;94.70;;;;;;5069146;28;20200;-90
2022/04/12 02:37:23;;;;;;;5.07;4.60;;;5.90;94.70;;;;;;5086321;28;20203;-86
2022/04/12 02:39:51;;;;;;;4.87;4.40;;;5.90;95.00;;;;;;5071279;28;20201;-87
2022/04/12 02:42:20;;;;;;;4.97;4.00;;;5.90;95.00;;;;;;5074871;28;20519;-86
2022/04/12 02:45:01;;;;;;;4.33;3.93;;;5.80;94.70;;;;;;5079438;28;20190;-88
2022/04/12 02:47:32;;;;;;;5.73;4.00;;;5.70;94.70;;;;;;5079569;28;20159;-87
2022/04/12 02:49:58;;;;;;;5.23;4.20;;;5.60;94.80;;;;;;5079817;28;20180;-85
2022/04/12 02:52:27;;;;;;;6.20;4.23;;;5.50;95.10;;;;;;5070485;28;20193;-87
2022/04/12 02:54:58;;;;;;;4.60;4.20;;;5.40;95.30;;;;;;5071678;28;20187;-85
2022/04/12 02:57:24;;;;;;;6.93;4.10;;;5.40;95.50;;;;;;5066556;28;20191;-86
2022/04/12 02:59:53;;;;;;;4.73;4.00;;;5.40;95.50;;;;;;5065830;28;20212;-86
2022/04/12 03:02:25;;;;;;;4.00;3.70;;;5.40;95.70;;;;;;5067520;28;20634;-86
2022/04/12 03:05:01;;;;;;;7.10;4.13;;;5.50;95.40;;;;;;5067527;28;20165;-87
2022/04/12 03:07:29;;;;;;;4.77;4.23;;;5.50;95.40;;;;;;5066380;28;20585;-88
2022/04/12 03:09:56;;;;;;;6.33;4.07;;;5.50;95.40;;;;;;5066201;28;20302;-90
2022/04/12 03:12:22;;;;;;;4.33;3.93;;;5.50;95.60;;;;;;5066514;28;20182;-87
2022/04/12 03:14:47;;;;;;;4.80;4.13;;;5.50;95.50;;;;;;5063385;28;20170;-87
2022/04/12 03:17:14;;;;;;;4.80;3.60;;;5.40;95.60;;;;;;5063325;28;20200;-86
2022/04/12 03:19:40;;;;;;;4.53;3.93;;;5.40;95.70;;;;;;5063085;28;20195;-86
2022/04/12 03:22:08;;;;;;;4.50;4.10;;;5.40;95.70;;;;;;5062064;28;20199;-86
2022/04/12 03:24:34;;;;;;;4.73;4.20;;;5.50;95.70;;;;;;5059608;28;20179;-88
2022/04/12 03:26:59;;;;;;;5.23;3.53;;;5.50;95.50;;;;;;5059182;28;20542;-86
2022/04/12 03:29:27;;;;;;;4.00;3.70;;;5.50;95.40;;;;;;5061206;28;20174;-86
2022/04/12 03:31:53;;;;;;;4.20;3.80;;;5.40;95.30;;;;;;5061629;28;20173;-87
2022/04/12 03:34:19;;;;;;;4.13;3.83;;;5.30;95.30;;;;;;5060572;28;20213;-87
2022/04/12 03:36:46;;;;;;;4.00;3.70;;;5.20;95.50;;;;;;5061912;28;20298;-86
2022/04/12 03:39:18;;;;;;;4.80;3.93;;;5.20;95.60;;;;;;5061146;28;20166;-90
2022/04/12 03:41:46;;;;;;;4.37;3.93;;;5.10;95.40;;;;;;5061489;28;20197;-86
2022/04/12 03:44:14;;;;;;;5.87;3.80;;;5.10;95.50;;;;;;5059447;28;20213;-86
2022/04/12 03:46:42;;;;;;;7.10;3.90;;;4.90;95.70;;;;;;5060261;28;20533;-86
2022/04/12 03:49:10;;;;;;;5.23;4.20;;;4.80;95.80;;;;;;5060547;28;20244;-86
2022/04/12 03:51:37;;;;;;;5.83;3.80;;;4.80;95.90;;;;;;5043649;28;20168;-88
2022/04/12 03:54:05;;;;;;;5.03;4.03;;;4.70;96.10;;;;;;5060519;28;20668;-88
2022/04/12 03:56:31;;;;;;;4.87;4.10;;;4.60;96.30;;;;;;5063598;28;20267;-86
2022/04/12 03:58:58;;;;;;;6.10;4.50;;;4.60;96.60;;;;;;5073415;28;20182;-88
2022/04/12 04:01:25;;;;;;;4.80;4.00;;;4.60;96.70;;;;;;5078831;28;20182;-95
2022/04/12 04:03:53;;;;;;;4.30;3.90;;;4.70;96.70;;;;;;5073890;28;20225;-86
2022/04/12 04:06:18;;;;;;;5.03;3.87;;;4.70;96.70;;;;;;5062442;28;20185;-86
2022/04/12 04:08:45;;;;;;;4.60;4.20;;;4.70;96.90;;;;;;5063339;28;20170;-88
2022/04/12 04:11:11;;;;;;;4.37;3.93;;;4.70;97.00;;;;;;5061624;28;20251;-87
2022/04/12 04:13:40;;;;;;;4.73;4.23;;;4.80;97.00;;;;;;5065729;28;20581;-87
2022/04/12 04:16:06;;;;;;;5.00;4.23;;;4.70;97.10;;;;;;5065351;28;20213;-86
2022/04/12 04:18:36;;;;;;;4.67;4.27;;;4.70;97.20;;;;;;5066969;28;20190;-87
2022/04/12 04:21:03;;;;;;;7.60;4.10;;;4.60;97.40;;;;;;5065724;28;20186;-89
2022/04/12 04:23:32;;;;;;;5.60;4.57;;;4.70;97.40;;;;;;5069288;28;20177;-88
2022/04/12 04:25:58;;;;;;;7.27;4.53;;;4.70;97.50;;;;;;5067847;28;20236;-86
2022/04/12 04:28:29;;;;;;;6.83;4.40;;;4.70;97.60;;;;;;5050930;28;20184;-86
2022/04/12 04:30:57;;;;;;;7.43;5.10;;;4.70;97.60;;;;;;5068312;28;20254;-86
2022/04/12 04:33:22;;;;;;;5.43;4.97;;;4.70;97.50;;;;;;5067691;28;20217;-86
2022/04/12 04:35:51;;;;;;;6.57;4.70;;;4.80;97.60;;;;;;5085948;28;20176;-86
2022/04/12 04:38:18;;;;;;;6.47;4.50;;;4.80;97.50;;;;;;5068429;28;20193;-87
2022/04/12 04:40:45;;;;;;;7.33;4.90;;;4.90;97.30;;;;;;5071890;28;20225;-92
2022/04/12 04:43:11;;;;;;;9.00;5.00;;;4.90;97.00;;;;;;5070157;28;20247;-93
2022/04/12 04:45:37;;;;;;;7.83;4.43;;;5.00;96.90;;;;;;5056241;28;20197;-92
2022/04/12 04:48:04;;;;;;;6.13;4.43;;;5.00;96.80;;;;;;5087580;28;20209;-88
2022/04/12 04:50:35;;;;;;;5.90;4.50;;;4.90;97.00;;;;;;5073028;28;20649;-89
2022/04/12 04:53:10;;;;;;;5.30;4.50;;;4.90;97.10;;;;;;5072422;28;20180;-86
2022/04/12 04:55:37;;;;;;;5.50;4.47;;;4.90;97.20;;;;;;5071827;28;20155;-86
2022/04/12 04:58:04;;;;;;;7.97;4.53;;;4.80;97.20;;;;;;5049663;28;20199;-86
2022/04/12 05:00:34;;;;;;;7.70;5.47;;;4.80;97.10;;;;;;5065817;28;20202;-86
2022/04/12 05:03:03;;;;;;;10.27;5.73;;;4.70;97.20;;;;;;5100834;22;20227;-86
2022/04/12 05:05:29;;;;;;;6.70;5.20;;;4.90;97.10;;;;;;5091683;28;20181;-85
2022/04/12 05:07:58;;;;;;;6.27;5.10;;;4.80;97.10;;;;;;5090342;28;20186;-86
2022/04/12 05:10:29;;;;;;;6.07;4.70;;;4.80;97.10;;;;;;5092714;28;20176;-86
2022/04/12 05:12:58;;;;;;;6.73;4.13;;;4.80;97.20;;;;;;5108947;28;20173;-85
2022/04/12 05:15:25;;;;;;;5.60;4.50;;;4.70;97.40;;;;;;5107417;28;20225;-85
2022/04/12 05:17:52;;;;;;;6.30;4.90;;;4.80;97.40;;;;;;5110586;28;20212;-86
2022/04/12 05:20:27;;;;;;;12.37;7.90;;;4.80;97.30;;;;;;5117405;28;20199;-84
2022/04/12 05:22:54;;;;;;;5.83;5.07;;;4.80;97.30;;;;;;5100626;28;20159;-85
2022/04/12 05:25:28;;;;;;;4.80;4.40;;;4.90;97.40;;;;;;5107857;28;20200;-85
2022/04/12 05:27:56;;;;;;;5.07;4.10;;;4.90;97.40;;;;;;5115144;28;20188;-85
2022/04/12 05:30:22;;;;;;;4.70;4.30;;;5.00;97.30;;;;;;5083678;28;20208;-87
2022/04/12 05:32:48;;;;;;;5.83;4.20;;;5.20;97.10;;;;;;5101453;28;20186;-86
2022/04/12 05:35:15;;;;;;;5.57;4.73;;;5.30;97.00;;;;;;5110557;28;20166;-86
2022/04/12 05:38:06;;;;;;;4.33;4.03;;;5.50;96.90;;;;;;5093903;28;20221;-85
2022/04/12 05:40:33;;;;;;;6.07;4.40;;;5.70;96.70;;;;;;5092194;28;20649;-86
2022/04/12 05:43:00;;;;;;;5.63;4.20;;;5.80;96.40;;;;;;5096143;28;20207;-86
2022/04/12 05:45:26;;;;;;;4.23;3.83;;;6.00;96.30;;;;;;5096736;28;20271;-86
2022/04/12 05:47:54;;;;;;;8.20;4.80;;;6.20;96.10;;;;;;5117029;28;20182;-89
2022/04/12 05:50:31;;;;;;;8.97;6.07;;;6.30;95.90;;;;;;5107358;28;20177;-86
2022/04/12 05:52:58;;;;;;;6.20;5.00;;;6.50;95.70;;;;;;5104234;28;20647;-87
2022/04/12 05:55:26;;;;;;;8.90;4.30;;;6.60;95.60;;;;;;5102489;28;20180;-88
2022/04/12 05:57:59;;;;;;;5.10;4.40;;;6.70;95.40;;;;;;5096440;28;20219;-87
2022/04/12 06:00:27;;;;;;;4.90;4.47;;;6.80;95.20;;;;;;5099288;28;20174;-88
2022/04/12 06:02:54;;;;;;;5.83;4.63;;;6.90;95.00;;;;;;5098614;28;20178;-89
2022/04/12 06:05:22;;;;;;;7.27;4.37;;;6.90;95.00;;;;;;5096169;28;20623;-87
2022/04/12 06:07:48;;;;;;;4.60;4.20;;;7.00;94.90;;;;;;5095138;28;20171;-88
2022/04/12 06:10:16;;;;;;;8.43;4.70;;;7.00;94.70;;;;;;5095675;28;20163;-87
2022/04/12 06:12:42;;;;;;;4.77;4.27;;;7.00;94.70;;;;;;5078765;28;20204;-87
2022/04/12 06:15:09;;;;;;;7.17;4.60;;;7.10;94.30;;;;;;5094941;28;20635;-88
2022/04/12 06:17:37;;;;;;;7.07;4.50;;;7.20;94.00;;;;;;5095060;28;20239;-86
2022/04/12 06:20:07;;;;;;;4.80;4.33;;;7.30;94.00;;;;;;5095281;28;20216;-90
2022/04/12 06:22:33;;;;;;;6.67;4.40;;;7.30;93.90;;;;;;5095692;28;20170;-90
2022/04/12 06:24:59;;;;;;;6.00;4.13;;;7.40;93.80;;;;;;5095829;28;20691;-90
2022/04/12 06:27:39;;;;;;;4.30;4.00;;;7.50;93.50;;;;;;5099998;28;20195;-89
2022/04/12 06:30:17;;;;;;;4.80;4.40;;;7.60;93.20;;;;;;5060704;28;20184;-88
2022/04/12 06:32:44;;;;;;;4.57;4.17;;;7.90;92.50;;;;;;5062944;28;20249;-93
2022/04/12 06:35:12;;;;;;;4.43;4.03;;;7.90;92.50;;;;;;5078774;28;20167;-87
2022/04/12 06:37:39;;;;;;;7.03;4.60;;;8.00;92.20;;;;;;5063668;28;20219;-88
2022/04/12 06:40:07;;;;;;;4.37;4.07;;;8.10;91.80;;;;;;5077210;28;20198;-88
2022/04/12 06:42:34;;;;;;;12.17;4.97;;;8.20;91.60;;;;;;5075530;28;20180;-87
2022/04/12 06:45:00;;;;;;;5.57;4.10;;;8.30;91.50;;;;;;5059426;28;20788;-87
2022/04/12 06:47:26;;;;;;;7.87;4.80;;;8.40;91.60;;;;;;5082816;28;20183;-90
2022/04/12 06:49:52;;;;;;;5.07;4.60;;;8.40;91.20;;;;;;5088473;28;20173;-90
2022/04/12 06:52:21;;;;;;;4.23;3.90;;;8.50;90.80;;;;;;5069805;28;20188;-90
2022/04/12 06:54:48;;;;;;;4.57;4.27;;;8.50;90.90;;;;;;5096547;28;20170;-89
2022/04/12 06:57:14;;;;;;;7.03;4.77;;;8.60;91.30;;;;;;5077111;28;20224;-87
2022/04/12 06:59:40;;;;;;;4.77;4.30;;;8.70;91.10;;;;;;5067071;28;20270;-89
2022/04/12 07:02:06;;;;;;;5.20;4.67;;;8.70;91.00;;;;;;5067264;28;20189;-91
2022/04/12 07:04:33;;;;;;;6.90;4.83;;;8.80;91.00;;;;;;5067219;28;20256;-86
2022/04/12 07:07:00;;;;;;;5.10;4.60;;;8.90;90.80;;;;;;5060136;28;20193;-86
2022/04/12 07:09:28;;;;;;;8.57;4.60;;;8.90;90.80;;;;;;5079364;28;20174;-87
2022/04/12 07:11:59;;;;;;;4.70;4.20;;;9.00;90.70;;;;;;5063419;28;20179;-88
2022/04/12 07:14:29;;;;;;;5.53;4.60;;;9.00;90.60;;;;;;5064114;28;20280;-88
2022/04/12 07:16:55;;;;;;;4.80;4.40;;;9.30;90.40;;;;;;5060316;28;20225;-87
2022/04/12 07:19:24;;;;;;;4.83;4.30;;;9.10;90.10;;;;;;5078823;28;20171;-88
2022/04/12 07:21:50;;;;;;;5.20;4.70;;;9.10;90.00;;;;;;5081434;28;20217;-89
2022/04/12 07:24:16;;;;;;;4.70;4.40;;;9.30;89.50;;;;;;5070705;28;20173;-87
2022/04/12 07:26:43;;;;;;;4.67;4.10;;;9.40;87.50;;;;;;5083192;28;20257;-86
2022/04/12 07:29:09;;;;;;;6.00;4.30;;;9.50;86.90;;;;;;5082586;28;20235;-87
2022/04/12 07:31:37;;;;;;;5.53;4.03;;;9.50;87.10;;;;;;5080309;28;20175;-87
2022/04/12 07:34:03;;;;;;;5.00;4.57;;;9.60;87.30;;;;;;5083668;28;20275;-87
2022/04/12 07:36:31;;;;;;;5.37;4.60;;;9.70;87.10;;;;;;5065618;28;20239;-88
2022/04/12 07:38:57;;;;;;;7.17;4.00;;;9.70;86.00;;;;;;5085674;28;20176;-90
2022/04/12 07:41:24;;;;;;;6.13;4.20;;;9.80;86.30;;;;;;5066900;28;20262;-88
2022/04/12 07:43:52;;;;;;;4.70;4.17;;;9.80;86.70;;;;;;5078183;28;20221;-87
2022/04/12 07:46:19;;;;;;;5.37;4.30;;;9.90;86.80;;;;;;5077950;28;20181;-87
2022/04/12 07:48:45;;;;;;;5.13;4.37;;;10.00;85.40;;;;;;5077457;28;20196;-87
2022/04/12 07:51:11;;;;;;;4.60;4.20;;;10.10;84.90;;;;;;5077116;28;20526;-87
2022/04/12 07:53:38;;;;;;;5.30;4.80;;;10.20;84.60;;;;;;5076639;28;20179;-87
2022/04/12 07:56:04;;;;;;;4.97;4.40;;;10.20;84.90;;;;;;5058572;28;20207;-87
2022/04/12 07:58:32;;;;;;;4.77;4.37;;;10.10;85.20;;;;;;5077042;28;20571;-89
2022/04/12 08:00:59;;;;;;;8.03;4.60;;;10.10;85.60;;;;;;5077609;28;20182;-88
2022/04/12 08:03:25;;;;;;;5.40;4.90;;;10.30;85.20;;;;;;5059302;28;20367;-88
2022/04/12 08:05:51;;;;;;;4.70;4.30;;;10.40;85.10;;;;;;5061224;28;20194;-91
2022/04/12 08:08:18;;;;;;;4.97;4.57;;;10.40;85.70;;;;;;5066455;28;20180;-89
2022/04/12 08:10:44;;;;;;;4.90;4.50;;;10.50;86.00;;;;;;5084032;28;20172;-89
2022/04/12 08:13:11;;;;;;;4.63;4.23;;;10.50;85.70;;;;;;5059025;28;20217;-87
2022/04/12 08:15:37;;;;;;;5.10;4.33;;;10.60;85.90;;;;;;5080976;28;20175;-88
2022/04/12 08:18:07;;;;;;;5.07;4.53;;;10.60;86.10;;;;;;5064267;28;20577;-90
2022/04/12 08:20:33;;;;;;;4.80;4.40;;;10.80;86.10;;;;;;5083984;28;20191;-86
2022/04/12 08:22:59;;;;;;;4.97;4.57;;;10.80;85.50;;;;;;5084855;28;20182;-88
2022/04/12 08:25:27;;;;;;;5.23;4.73;;;10.90;85.50;;;;;;5084747;28;20179;-87
2022/04/12 08:27:55;;;;;;;4.90;4.50;;;10.90;85.00;;;;;;5085017;28;20180;-88
2022/04/12 08:30:21;;;;;;;6.80;4.90;;;10.90;85.50;;;;;;5086035;28;20199;-88
2022/04/12 08:32:49;;;;;;;5.53;4.70;;;11.00;85.90;;;;;;5084764;28;20168;-89
2022/04/12 08:35:15;;;;;;;5.63;5.03;;;11.00;85.90;;;;;;5067198;28;20188;-87
2022/04/12 08:37:41;;;;;;;5.30;4.83;;;11.20;85.60;;;;;;5086073;28;20204;-87
2022/04/12 08:40:07;;;;;;;5.23;4.70;;;11.30;85.20;;;;;;5069412;28;20646;-90
2022/04/12 08:42:33;;;;;;;5.53;5.03;;;11.30;84.50;;;;;;5088249;28;20202;-87
2022/04/12 08:45:03;;;;;;;5.27;4.77;;;11.30;84.40;;;;;;5087150;28;20183;-91
2022/04/12 08:47:34;;;;;;;5.30;4.80;;;11.30;84.80;;;;;;5093697;28;20175;-93
2022/04/12 08:50:05;;;;;;;5.10;4.70;;;11.30;85.30;;;;;;5098893;28;20163;-89
2022/04/12 08:52:32;;;;;;;5.57;5.07;;;11.30;86.00;;;;;;5093536;28;20613;-90
2022/04/12 08:54:58;;;;;;;6.93;5.00;;;11.40;86.90;;;;;;5081900;28;20176;-88
2022/04/12 08:57:25;;;;;;;5.17;4.50;;;11.50;85.30;;;;;;5081906;28;20204;-90
2022/04/12 08:59:54;;;;;;;5.53;5.03;;;11.60;84.80;;;;;;5064112;28;20179;-86
2022/04/12 09:02:20;;;;;;;5.10;4.60;;;11.50;85.70;;;;;;5083129;28;20204;-88
2022/04/12 09:04:47;;;;;;;5.50;4.60;;;11.70;85.30;;;;;;5083157;28;20633;-87
2022/04/12 09:07:13;;;;;;;6.03;4.47;;;11.70;84.50;;;;;;5083942;28;20171;-89
2022/04/12 09:09:41;;;;;;;6.33;4.67;;;11.70;85.70;;;;;;5067860;28;20535;-88
2022/04/12 09:12:13;;;;;;;5.13;4.73;;;11.80;86.80;;;;;;5088217;28;20202;-89
2022/04/12 09:14:43;;;;;;;4.60;4.20;;;11.90;85.30;;;;;;5072146;28;20188;-90
2022/04/12 09:17:32;;;;;;;8.73;4.30;;;12.00;85.50;;;;;;5067926;28;20216;-87
2022/04/12 09:19:59;;;;;;;6.50;5.63;;;12.10;85.80;;;;;;5086502;28;20162;-88
2022/04/12 09:22:28;;;;;;;8.40;5.50;;;12.20;85.10;;;;;;5086420;28;20190;-90
2022/04/12 09:25:02;;;;;;;5.23;4.27;;;12.30;84.60;;;;;;5068401;28;20238;-90
2022/04/12 09:27:31;;;;;;;4.97;4.50;;;12.30;82.90;;;;;;5066557;28;20178;-87
2022/04/12 09:30:09;;;;;;;6.07;4.37;;;12.30;83.40;;;;;;5075949;28;20218;-87
2022/04/12 09:32:40;;;;;;;5.03;4.60;;;12.30;83.40;;;;;;5094246;28;20146;-87
2022/04/12 09:35:07;;;;;;;6.93;4.43;;;12.40;83.30;;;;;;5079853;28;20195;-89
2022/04/12 09:37:38;;;;;;;7.57;4.10;;;12.40;83.60;;;;;;5092861;28;20207;-90
2022/04/12 09:40:15;;;;;;;4.60;4.20;;;12.50;83.40;;;;;;5083442;28;20191;-88
2022/04/12 09:42:54;;;;;;;4.83;4.43;;;12.60;83.20;;;;;;5084890;28;20221;-88
2022/04/12 09:45:30;;;;;;;5.33;4.83;;;12.60;84.40;;;;;;5084011;28;20155;-94
2022/04/12 09:48:02;;;;;;;5.13;4.70;;;12.70;82.40;;;;;;5086603;28;20163;-91
2022/04/12 09:50:29;;;;;;;6.63;5.37;;;12.80;82.00;;;;;;5085690;28;20177;-89
2022/04/12 09:53:05;;;;;;;4.73;4.33;;;12.80;82.20;;;;;;5094662;28;20169;-88
2022/04/12 09:55:42;;;;;;;7.03;4.63;;;12.80;83.10;;;;;;5094828;28;20196;-86
2022/04/12 09:58:21;;;;;;;5.13;4.17;;;12.80;82.80;;;;;;5076691;28;20215;-88
2022/04/12 10:00:47;;;;;;;5.73;4.30;;;12.90;83.40;;;;;;5097607;28;20228;-88
2022/04/12 10:03:15;;;;;;;4.50;4.20;;;13.00;83.20;;;;;;5096038;28;20221;-88
2022/04/12 10:05:44;;;;;;;4.93;4.53;;;13.30;83.50;;;;;;5077947;28;20174;-86
2022/04/12 10:08:12;;;;;;;4.73;4.23;;;13.30;82.60;;;;;;5079420;28;20175;-87
2022/04/12 10:10:44;;;;;;;7.17;4.20;;;13.30;82.00;;;;;;5092911;28;20186;-86
2022/04/12 10:13:12;;;;;;;4.87;4.30;;;13.30;81.30;;;;;;5083706;28;20639;-86
2022/04/12 10:15:39;;;;;;;4.57;4.23;;;13.30;83.60;;;;;;5064103;28;20183;-86
2022/04/12 10:18:04;;;;;;;6.80;3.90;;;13.30;83.70;;;;;;5081295;28;20206;-87
2022/04/12 10:20:31;;;;;;;4.80;3.97;;;13.40;83.80;;;;;;5063483;28;20186;-88
2022/04/12 10:22:58;;;;;;;4.70;4.00;;;13.60;84.40;;;;;;5080797;28;20182;-86
2022/04/12 10:25:26;;;;;;;5.07;4.37;;;13.70;83.90;;;;;;5064099;28;20175;-87
2022/04/12 10:27:57;;;;;;;4.37;4.07;;;13.90;82.80;;;;;;5079728;28;20217;-88
2022/04/12 10:30:27;;;;;;;5.17;4.30;;;13.90;83.20;;;;;;5080350;28;20171;-89
2022/04/12 10:33:19;;;;;;;4.17;3.97;;;14.10;82.20;;;;;;5064223;28;20620;-87
2022/04/12 10:35:46;;;;;;;5.20;4.70;;;14.10;81.00;;;;;;5083453;28;20198;-88
2022/04/12 10:38:15;;;;;;;4.63;4.23;;;14.20;81.80;;;;;;5092048;28;20179;-95
2022/04/12 10:40:48;;;;;;;4.30;4.00;;;14.20;82.20;;;;;;5101747;28;20163;-93
2022/04/12 10:43:21;;;;;;;5.07;4.00;;;14.40;80.70;;;;;;5076420;28;20638;-88
2022/04/12 10:45:48;;;;;;;4.10;3.80;;;14.30;80.00;;;;;;5086583;28;20167;-90
2022/04/12 10:48:24;;;;;;;4.97;4.27;;;14.30;79.40;;;;;;5067581;28;20247;-88
2022/04/12 10:50:58;;;;;;;4.90;4.50;;;14.40;80.30;;;;;;5067298;28;20217;-87
2022/04/12 10:53:38;;;;;;;3.93;3.63;;;14.50;81.40;;;;;;5085946;28;20164;-87
2022/04/12 10:56:16;;;;;;;4.83;3.83;;;14.60;77.50;;;;;;5087498;28;20171;-87
2022/04/12 10:58:44;;;;;;;4.10;3.70;;;14.60;78.80;;;;;;5088226;28;20178;-88
2022/04/12 11:01:32;;;;;;;3.90;3.57;;;14.60;79.70;;;;;;5083357;28;20579;-86
2022/04/12 11:04:01;;;;;;;4.73;4.43;;;14.70;78.70;;;;;;5080346;28;20258;-87
2022/04/12 11:06:32;;;;;;;4.10;3.73;;;14.80;78.40;;;;;;5079801;28;20179;-91
2022/04/12 11:09:10;;;;;;;5.60;4.17;;;14.90;78.20;;;;;;5062766;28;20202;-90
2022/04/12 11:11:42;;;;;;;4.40;4.10;;;14.90;78.20;;;;;;5079545;28;20178;-91
2022/04/12 11:14:25;;;;;;;5.97;4.10;;;15.00;78.00;;;;;;5079511;28;20190;-87
2022/04/12 11:17:06;;;;;;;5.40;3.83;;;15.00;78.00;;;;;;5079095;28;20230;-86
2022/04/12 11:19:44;;;;;;;4.37;4.07;;;15.10;77.80;;;;;;5061694;28;20193;-87
2022/04/12 11:22:20;;;;;;;4.67;4.20;;;15.10;78.40;;;;;;5088975;28;20165;-90
2022/04/12 11:25:19;;;;;;;4.00;3.70;;;15.20;77.90;;;;;;5072584;28;20167;-90
2022/04/12 11:27:47;;;;;;;3.80;3.50;;;15.30;77.40;;;;;;5070233;28;20195;-87
2022/04/12 11:30:13;;;;;;;4.83;3.80;;;15.40;78.10;;;;;;5083548;28;20168;-96
2022/04/12 11:32:41;;;;;;;3.83;3.50;;;15.40;77.20;;;;;;5086239;28;20249;-96
2022/04/12 11:35:10;;;;;;;3.63;3.33;;;15.50;76.60;;;;;;5085662;28;20176;-88
2022/04/12 11:37:40;;;;;;;3.77;3.40;;;15.50;75.60;;;;;;5068042;28;20211;-92
2022/04/12 11:40:06;;;;;;;4.60;3.47;;;15.70;76.10;;;;;;5072028;28;20178;-86
2022/04/12 11:42:33;;;;;;;3.43;3.13;;;15.80;77.20;;;;;;5084681;28;20239;-89
2022/04/12 11:45:00;;;;;;;4.80;3.50;;;15.90;76.10;;;;;;5073413;28;20631;-89
2022/04/12 11:47:28;;;;;;;3.87;3.57;;;16.00;75.70;;;;;;5086500;28;20179;-90
2022/04/12 11:49:54;;;;;;;3.53;3.30;;;16.10;75.40;;;;;;5071690;28;20297;-90
2022/04/12 11:52:20;;;;;;;3.47;3.07;;;16.20;74.30;;;;;;5092812;28;20206;-86
2022/04/12 11:54:48;;;;;;;4.20;3.13;;;16.20;74.40;;;;;;5089667;28;20197;-92
2022/04/12 11:57:24;;;;;;;4.00;3.33;;;16.20;73.70;;;;;;5088979;28;20219;-95
2022/04/12 11:59:58;;;;;;;3.80;3.47;;;16.30;75.30;;;;;;5069438;28;20167;-89
2022/04/12 12:02:32;;;;;;;3.67;3.30;;;16.30;75.90;;;;;;5080353;28;20182;-90
2022/04/12 12:05:00;;;;;;;3.60;3.40;;;16.30;73.50;;;;;;5064421;28;20649;-90
2022/04/12 12:07:27;;;;;;;3.67;3.37;;;16.20;72.70;;;;;;5062904;28;20236;-87
2022/04/12 12:09:58;;;;;;;5.20;3.23;;;16.20;72.80;;;;;;5080878;28;20174;-87
2022/04/12 12:12:37;;;;;;;5.47;3.67;;;16.20;74.00;;;;;;5084777;28;20174;-85
2022/04/12 12:15:24;;;;;;;3.80;3.50;;;16.20;73.60;;;;;;5062820;28;20625;-89
2022/04/12 12:17:52;;;;;;;3.60;3.30;;;16.10;72.90;;;;;;5080772;28;20685;-87
2022/04/12 12:20:21;;;;;;;3.73;3.50;;;16.10;72.20;;;;;;5060179;28;20175;-91
2022/04/12 12:22:53;;;;;;;3.60;3.30;;;16.20;73.10;;;;;;5078799;28;20184;-86
2022/04/12 12:25:43;;;;;;;3.13;2.97;;;16.30;73.10;;;;;;5086126;28;20171;-86
2022/04/12 12:28:24;;;;;;;3.50;3.30;;;16.30;71.80;;;;;;5095832;28;20164;-85
2022/04/12 12:30:59;;;;;;;6.23;3.20;;;16.30;70.60;;;;;;5072472;28;20188;-92
2022/04/12 12:33:35;;;;;;;3.87;2.90;;;16.30;70.50;;;;;;5090509;28;20170;-86
2022/04/12 12:36:03;;;;;;;3.67;3.37;;;16.30;71.00;;;;;;5089058;28;20217;-87
2022/04/12 12:38:30;;;;;;;3.63;3.20;;;16.30;70.80;;;;;;5089500;28;20180;-89
2022/04/12 12:40:58;;;;;;;3.43;3.20;;;16.40;69.70;;;;;;5071618;28;20206;-92
2022/04/12 12:43:26;;;;;;;6.13;3.40;;;16.40;69.90;;;;;;5077904;28;20643;-87
2022/04/12 12:45:52;;;;;;;4.57;3.30;;;16.40;70.10;;;;;;5079312;28;20163;-89
2022/04/12 12:48:19;;;;;;;3.47;3.17;;;16.40;69.40;;;;;;5080983;28;20173;-91
2022/04/12 12:50:45;;;;;;;3.33;3.07;;;16.40;69.00;;;;;;5076881;28;20168;-89
2022/04/12 12:53:13;;;;;;;2.93;2.73;;;16.40;68.40;;;;;;5075869;28;20577;-94
2022/04/12 12:55:45;;;;;;;3.30;3.00;;;16.50;68.80;;;;;;5077802;28;20176;-87
2022/04/12 12:58:15;;;;;;;3.10;2.80;;;16.60;69.30;;;;;;5077100;28;20197;-95
2022/04/12 13:00:41;;;;;;;4.60;3.70;;;16.60;69.00;;;;;;5080329;28;20163;-94
2022/04/12 13:03:22;;;;;;;3.13;2.73;;;16.60;67.10;;;;;;5078635;28;20238;-96